Time;durP1;ratioP1;P1;durP2;ratioP2;P2;SDS_P1;SDS_P2;PMS_P1;PMS_P2;Temp;Humidity;BMP_temperature;BMP_pressure;BME280_temperature;BME280_humidity;BME280_pressure;Samples;Min_cycle;Max_cycle;Signal;HPM_P1;HPM_P2
2021/05/26 00:01:04;;;;;;;5.05;3.55;;;11.40;99.90;;;;;;4363156;32;20089;-69
2021/05/26 00:03:30;;;;;;;4.80;3.30;;;11.30;99.90;;;;;;4351455;32;20108;-69
2021/05/26 00:05:56;;;;;;;5.18;3.50;;;11.20;99.90;;;;;;4366990;32;20103;-70
2021/05/26 00:08:33;;;;;;;4.22;3.12;;;11.20;99.90;;;;;;4391078;32;20125;-71
2021/05/26 00:11:02;;;;;;;7.55;3.90;;;11.20;99.90;;;;;;4378527;32;20085;-69
2021/05/26 00:13:28;;;;;;;5.57;3.53;;;11.30;99.90;;;;;;4366069;32;20134;-70
2021/05/26 00:15:55;;;;;;;6.05;3.78;;;11.40;99.90;;;;;;4375849;32;20159;-71
2021/05/26 00:18:22;;;;;;;6.22;4.10;;;11.30;99.90;;;;;;4362999;32;20078;-70
2021/05/26 00:20:48;;;;;;;4.53;3.60;;;11.30;99.90;;;;;;4363733;32;20070;-69
2021/05/26 00:23:15;;;;;;;5.53;3.60;;;11.30;99.90;;;;;;4363126;32;20074;-69
2021/05/26 00:25:41;;;;;;;5.87;3.90;;;11.30;99.90;;;;;;4376781;32;20059;-69
2021/05/26 00:28:08;;;;;;;6.90;3.50;;;11.20;99.90;;;;;;4350898;32;20062;-70
2021/05/26 00:30:41;;;;;;;5.87;3.70;;;11.30;99.90;;;;;;4362950;32;20094;-70
2021/05/26 00:33:07;;;;;;;4.97;3.33;;;11.30;99.90;;;;;;4364099;32;20567;-70
2021/05/26 00:35:34;;;;;;;6.53;3.67;;;11.30;99.90;;;;;;4362761;32;20102;-70
2021/05/26 00:38:00;;;;;;;6.30;3.55;;;11.30;99.90;;;;;;4362590;32;20151;-69
2021/05/26 00:40:26;;;;;;;4.80;3.83;;;11.30;99.90;;;;;;4375467;32;20078;-69
2021/05/26 00:42:52;;;;;;;4.35;3.33;;;11.30;99.90;;;;;;4375457;32;20078;-70
2021/05/26 00:45:18;;;;;;;6.70;3.40;;;11.30;99.90;;;;;;4376539;32;20075;-70
2021/05/26 00:47:49;;;;;;;4.47;3.20;;;11.40;99.90;;;;;;4362563;32;20074;-69
2021/05/26 00:50:19;;;;;;;4.72;3.22;;;11.30;99.90;;;;;;4362529;32;20066;-70
2021/05/26 00:52:45;;;;;;;5.78;3.30;;;11.30;99.90;;;;;;4375101;32;20081;-70
2021/05/26 00:55:14;;;;;;;3.58;2.90;;;11.40;99.90;;;;;;4374868;32;20514;-70
2021/05/26 00:57:41;;;;;;;4.97;3.00;;;11.40;99.90;;;;;;4350230;32;20534;-69
2021/05/26 01:00:12;;;;;;;4.53;3.25;;;11.30;99.90;;;;;;4350286;32;20066;-70
2021/05/26 01:02:39;;;;;;;5.03;3.33;;;11.40;99.90;;;;;;4339323;32;20078;-70
2021/05/26 01:05:06;;;;;;;4.90;2.95;;;11.50;99.90;;;;;;4350647;32;20601;-70
2021/05/26 01:07:32;;;;;;;3.90;2.92;;;11.60;99.90;;;;;;4388549;32;20513;-69
2021/05/26 01:09:59;;;;;;;4.10;3.17;;;11.50;99.90;;;;;;4377731;32;20080;-70
2021/05/26 01:12:25;;;;;;;4.75;3.30;;;11.60;99.90;;;;;;4390383;32;20500;-70
2021/05/26 01:14:51;;;;;;;4.87;3.03;;;11.60;99.90;;;;;;4377576;32;20093;-69
2021/05/26 01:17:17;;;;;;;6.93;3.40;;;11.50;99.90;;;;;;4389845;32;20066;-70
2021/05/26 01:19:44;;;;;;;6.10;3.62;;;11.60;99.90;;;;;;4377521;32;20074;-70
2021/05/26 01:22:10;;;;;;;9.60;3.75;;;11.50;99.90;;;;;;4365099;32;20084;-70
2021/05/26 01:27:11;;;;;;;11.65;4.57;;;11.40;99.90;;;;;;3831638;37;20047;-69
2021/05/26 01:29:38;;;;;;;7.40;3.67;;;11.50;99.90;;;;;;4367011;32;20174;-70
2021/05/26 01:32:05;;;;;;;8.45;4.03;;;11.50;99.90;;;;;;4367317;32;20163;-70
2021/05/26 01:34:31;;;;;;;7.15;3.60;;;11.60;99.90;;;;;;4365894;32;20111;-69
2021/05/26 01:36:57;;;;;;;6.53;4.10;;;11.50;99.90;;;;;;4371304;32;20074;-70
2021/05/26 01:39:24;;;;;;;5.18;3.55;;;11.60;99.90;;;;;;4335914;32;20145;-70
2021/05/26 01:41:50;;;;;;;5.25;3.20;;;11.60;99.90;;;;;;4348141;32;20059;-69
2021/05/26 01:44:16;;;;;;;6.03;2.97;;;11.60;99.90;;;;;;4360344;32;20077;-69
2021/05/26 01:46:42;;;;;;;5.32;3.40;;;11.70;99.90;;;;;;4348056;32;20097;-70
2021/05/26 01:49:09;;;;;;;7.15;3.28;;;11.80;99.90;;;;;;4323664;32;20159;-69
2021/05/26 01:51:35;;;;;;;6.97;3.40;;;11.90;99.90;;;;;;4347982;32;20074;-68
2021/05/26 01:54:03;;;;;;;4.93;3.10;;;12.00;99.90;;;;;;4335582;32;20169;-69
2021/05/26 01:56:30;;;;;;;6.00;3.40;;;12.00;99.90;;;;;;4360306;32;20081;-70
2021/05/26 01:58:57;;;;;;;4.22;2.85;;;12.10;99.90;;;;;;4335900;32;20163;-70
2021/05/26 02:01:25;;;;;;;6.28;2.95;;;12.10;99.90;;;;;;4347601;32;20459;-69
2021/05/26 02:03:51;;;;;;;3.00;2.47;;;12.10;99.90;;;;;;4360066;32;20071;-69
2021/05/26 02:06:19;;;;;;;6.28;2.80;;;12.30;99.90;;;;;;4353361;32;20082;-70
2021/05/26 02:08:48;;;;;;;3.10;2.50;;;12.30;99.90;;;;;;4375384;32;20070;-71
2021/05/26 02:14:04;;;;;;;5.10;2.60;;;12.40;99.90;;;;;;4363985;32;20066;-70
2021/05/26 02:16:31;;;;;;;2.97;2.40;;;12.40;99.90;;;;;;4360057;32;20592;-69
2021/05/26 02:18:57;;;;;;;5.15;2.65;;;12.60;99.90;;;;;;4360090;32;20086;-69
2021/05/26 02:21:23;;;;;;;4.60;2.67;;;12.70;99.90;;;;;;4347436;32;20078;-70
2021/05/26 02:23:49;;;;;;;3.53;2.83;;;12.70;99.90;;;;;;4347669;32;20155;-70
2021/05/26 02:26:16;;;;;;;3.37;2.35;;;12.90;99.90;;;;;;4334788;32;20086;-70
2021/05/26 02:28:42;;;;;;;3.62;2.55;;;13.00;99.90;;;;;;4359802;32;20089;-70
2021/05/26 02:31:09;;;;;;;4.22;2.45;;;13.00;99.90;;;;;;4335275;32;20070;-69
2021/05/26 02:33:36;;;;;;;4.30;2.70;;;13.10;99.90;;;;;;4361326;32;20086;-71
2021/05/26 02:36:02;;;;;;;3.40;2.30;;;13.20;99.90;;;;;;4359455;32;20085;-71
2021/05/26 02:38:29;;;;;;;4.40;2.50;;;13.30;99.90;;;;;;4326045;32;20095;-70
2021/05/26 02:40:55;;;;;;;3.60;2.22;;;13.40;99.90;;;;;;4325329;32;20067;-71
2021/05/26 02:43:21;;;;;;;2.92;2.17;;;13.50;99.90;;;;;;4349707;32;20093;-70
2021/05/26 02:45:47;;;;;;;4.75;2.37;;;13.50;99.90;;;;;;4363035;32;20074;-70
2021/05/26 02:48:13;;;;;;;2.60;2.15;;;13.50;99.90;;;;;;4337412;32;20504;-70
2021/05/26 02:50:40;;;;;;;2.75;1.92;;;13.70;99.90;;;;;;4349538;32;20071;-70
2021/05/26 02:53:06;;;;;;;3.87;2.15;;;13.60;99.90;;;;;;4325417;32;20539;-70
2021/05/26 02:55:33;;;;;;;3.47;2.40;;;13.70;99.90;;;;;;4337635;32;20078;-70
2021/05/26 02:57:59;;;;;;;4.35;2.22;;;13.80;99.90;;;;;;4349130;32;20090;-70
2021/05/26 03:00:25;;;;;;;4.43;1.83;;;13.80;99.90;;;;;;4337037;32;20100;-70
2021/05/26 03:02:52;;;;;;;2.65;1.90;;;13.90;99.90;;;;;;4349957;32;20074;-70
2021/05/26 03:05:19;;;;;;;6.55;2.20;;;13.80;99.90;;;;;;4336907;32;20228;-70
2021/05/26 03:07:45;;;;;;;3.03;1.65;;;14.00;99.90;;;;;;4325051;32;20070;-70
2021/05/26 03:10:14;;;;;;;3.40;1.70;;;14.00;99.90;;;;;;4362849;32;20064;-71
2021/05/26 03:12:40;;;;;;;2.05;1.80;;;14.10;99.90;;;;;;4349616;32;20097;-70
2021/05/26 03:15:08;;;;;;;2.37;1.73;;;14.10;99.90;;;;;;4348865;32;20059;-70
2021/05/26 03:17:35;;;;;;;1.90;1.70;;;14.10;99.90;;;;;;4337198;32;20082;-70
2021/05/26 03:20:04;;;;;;;2.25;1.52;;;14.20;99.90;;;;;;4350264;32;20066;-70
2021/05/26 03:22:31;;;;;;;2.03;1.60;;;14.30;99.90;;;;;;4337618;32;20156;-71
2021/05/26 03:24:57;;;;;;;5.55;2.10;;;14.40;99.90;;;;;;4348823;32;20071;-68
2021/05/26 03:27:33;;;;;;;2.15;1.65;;;14.50;99.90;;;;;;4361019;32;20055;-70
2021/05/26 03:30:00;;;;;;;1.95;1.62;;;14.60;99.90;;;;;;4361109;32;20080;-70
2021/05/26 03:32:27;;;;;;;3.42;1.70;;;14.60;99.90;;;;;;4349032;32;20093;-70
2021/05/26 03:34:53;;;;;;;5.00;1.80;;;14.60;99.90;;;;;;4348837;32;20074;-69
2021/05/26 03:37:19;;;;;;;2.60;1.77;;;14.70;99.90;;;;;;4348261;32;20162;-70
2021/05/26 03:39:46;;;;;;;1.65;1.50;;;14.90;99.90;;;;;;4377982;32;20166;-69
2021/05/26 03:42:12;;;;;;;3.87;1.80;;;14.90;99.90;;;;;;4351229;32;20497;-70
2021/05/26 03:44:39;;;;;;;2.70;1.50;;;15.10;99.90;;;;;;4351437;32;20090;-69
2021/05/26 03:47:05;;;;;;;3.45;1.58;;;15.10;99.90;;;;;;4327282;32;20500;-71
2021/05/26 03:49:31;;;;;;;1.67;1.58;;;15.20;99.90;;;;;;4350684;32;20497;-70
2021/05/26 03:51:58;;;;;;;2.75;1.30;;;15.30;99.90;;;;;;4339189;32;20496;-71
2021/05/26 03:54:24;;;;;;;3.03;1.98;;;15.40;99.90;;;;;;4351373;32;20459;-70
2021/05/26 03:56:50;;;;;;;2.50;1.58;;;15.30;99.90;;;;;;4338750;32;20066;-70
2021/05/26 03:59:16;;;;;;;5.10;1.60;;;15.30;99.90;;;;;;4377381;32;20074;-70
2021/05/26 04:01:42;;;;;;;1.70;1.60;;;15.40;99.90;;;;;;4350877;32;20137;-70
2021/05/26 04:04:08;;;;;;;4.03;1.62;;;15.50;99.90;;;;;;4350869;32;20464;-70
2021/05/26 04:06:35;;;;;;;2.62;1.60;;;15.60;99.90;;;;;;4335995;32;20086;-69
2021/05/26 04:09:02;;;;;;;1.92;1.60;;;15.70;99.90;;;;;;4348923;32;20149;-69
2021/05/26 04:11:28;;;;;;;3.45;1.75;;;15.60;99.90;;;;;;4335718;32;20445;-70
2021/05/26 04:13:54;;;;;;;2.37;1.90;;;15.80;99.90;;;;;;4338072;32;20074;-70
2021/05/26 04:16:20;;;;;;;2.87;1.87;;;15.90;99.90;;;;;;4351038;32;20078;-71
2021/05/26 04:18:47;;;;;;;3.47;2.00;;;16.00;99.90;;;;;;4351064;32;20077;-70
2021/05/26 04:21:14;;;;;;;2.58;1.60;;;16.00;99.90;;;;;;4350824;32;20066;-70
2021/05/26 04:23:40;;;;;;;2.47;1.65;;;16.30;99.90;;;;;;4350633;32;20092;-70
2021/05/26 04:26:07;;;;;;;5.72;1.55;;;16.10;99.90;;;;;;4336263;32;20497;-69
2021/05/26 04:28:33;;;;;;;3.75;1.90;;;16.40;99.90;;;;;;4323914;32;20158;-70
2021/05/26 04:30:59;;;;;;;5.85;1.98;;;18.10;99.90;;;;;;4324171;32;20133;-70
2021/05/26 04:33:25;;;;;;;3.72;1.98;;;18.90;99.90;;;;;;4348057;32;20059;-71
2021/05/26 04:35:51;;;;;;;3.67;2.05;;;19.50;99.90;;;;;;4321165;33;20161;-71
2021/05/26 04:38:17;;;;;;;3.72;2.30;;;19.40;99.90;;;;;;4333334;33;20061;-70
2021/05/26 04:40:46;;;;;;;5.05;2.50;;;19.50;99.90;;;;;;4333221;33;20184;-70
2021/05/26 04:43:12;;;;;;;4.50;2.00;;;19.50;99.90;;;;;;4333720;33;20086;-70
2021/05/26 04:45:38;;;;;;;5.28;2.67;;;19.70;99.90;;;;;;4333233;33;20064;-69
2021/05/26 04:48:05;;;;;;;3.05;1.90;;;19.30;99.90;;;;;;4333245;33;20160;-70
2021/05/26 04:50:31;;;;;;;3.33;2.20;;;20.30;99.90;;;;;;4322120;33;20125;-71
2021/05/26 04:52:57;;;;;;;3.03;1.83;;;20.10;99.90;;;;;;4336848;33;20083;-69
2021/05/26 04:55:23;;;;;;;2.20;1.77;;;20.50;99.90;;;;;;4323806;33;20071;-69
2021/05/26 04:58:00;;;;;;;3.08;2.28;;;19.90;99.90;;;;;;4322964;33;20075;-68
2021/05/26 05:00:27;;;;;;;5.28;1.90;;;19.90;99.90;;;;;;4333480;33;20094;-69
2021/05/26 05:02:53;;;;;;;3.47;1.87;;;20.20;99.90;;;;;;4322020;33;20505;-68
2021/05/26 05:05:20;;;;;;;1.92;1.60;;;21.00;99.90;;;;;;4332916;33;20075;-67
2021/05/26 05:07:47;;;;;;;2.62;1.65;;;20.50;99.90;;;;;;4332922;33;20175;-69
2021/05/26 05:10:13;;;;;;;2.65;1.52;;;21.00;99.90;;;;;;4336027;33;20074;-69
2021/05/26 05:12:40;;;;;;;3.12;2.00;;;21.30;99.90;;;;;;4332975;33;20071;-70
2021/05/26 05:15:07;;;;;;;2.12;1.73;;;21.40;99.90;;;;;;4317729;32;20416;-70
2021/05/26 05:17:33;;;;;;;4.32;2.12;;;21.00;99.90;;;;;;4361692;32;20086;-69
2021/05/26 05:20:00;;;;;;;5.18;2.25;;;20.30;99.90;;;;;;4335142;32;20079;-69
2021/05/26 05:22:26;;;;;;;6.03;1.85;;;20.30;99.90;;;;;;4347983;32;20093;-69
2021/05/26 05:24:52;;;;;;;4.65;2.00;;;20.50;99.50;;;;;;4336027;32;20468;-69
2021/05/26 05:27:18;;;;;;;5.35;1.80;;;21.80;98.50;;;;;;4332287;33;20078;-69
2021/05/26 05:29:46;;;;;;;5.25;1.90;;;20.80;98.70;;;;;;4308340;33;20109;-68
2021/05/26 05:32:12;;;;;;;4.50;1.92;;;21.10;98.40;;;;;;4309448;33;20142;-69
2021/05/26 05:34:39;;;;;;;4.20;1.80;;;20.20;97.80;;;;;;4332881;33;20598;-69
2021/05/26 05:37:05;;;;;;;2.95;1.90;;;20.20;96.50;;;;;;4332871;33;20449;-69
2021/05/26 05:39:31;;;;;;;5.12;1.58;;;20.40;97.40;;;;;;4320871;33;20065;-68
2021/05/26 05:41:57;;;;;;;4.05;1.80;;;20.90;95.70;;;;;;4320651;33;20055;-69
2021/05/26 05:44:23;;;;;;;2.45;2.00;;;20.90;96.50;;;;;;4308419;33;20067;-69
2021/05/26 05:46:49;;;;;;;2.53;1.60;;;20.70;94.20;;;;;;4346100;33;20066;-69
2021/05/26 05:49:16;;;;;;;2.87;1.55;;;20.60;95.80;;;;;;4345879;33;20145;-70
2021/05/26 05:51:42;;;;;;;3.60;1.90;;;21.40;92.70;;;;;;4332604;33;20083;-69
2021/05/26 05:54:08;;;;;;;4.50;2.08;;;20.80;93.50;;;;;;4308123;33;20074;-70
2021/05/26 05:56:34;;;;;;;2.90;1.98;;;21.10;93.90;;;;;;4332352;33;20612;-69
2021/05/26 05:59:00;;;;;;;4.28;1.95;;;21.00;95.00;;;;;;4332824;33;20520;-70
2021/05/26 06:01:26;;;;;;;3.22;1.95;;;20.70;96.70;;;;;;4332709;33;20067;-69
2021/05/26 06:03:53;;;;;;;4.10;2.03;;;21.70;91.20;;;;;;4319939;33;20473;-69
2021/05/26 06:06:19;;;;;;;2.62;2.10;;;21.70;90.00;;;;;;4326922;32;20504;-70
2021/05/26 06:08:45;;;;;;;6.55;2.10;;;21.10;89.10;;;;;;4348134;32;20169;-69
2021/05/26 06:11:11;;;;;;;6.30;2.17;;;21.90;79.60;;;;;;4359464;32;20082;-69
2021/05/26 06:13:37;;;;;;;2.08;1.62;;;20.90;81.20;;;;;;4349156;32;20511;-70
2021/05/26 06:16:04;;;;;;;6.05;2.20;;;21.90;78.70;;;;;;4323408;33;20067;-67
2021/05/26 06:18:30;;;;;;;2.25;1.80;;;21.40;79.70;;;;;;4322913;33;20094;-69
2021/05/26 06:20:56;;;;;;;4.10;2.00;;;22.00;76.20;;;;;;4335371;33;20070;-69
2021/05/26 06:23:23;;;;;;;2.97;1.67;;;21.00;62.70;;;;;;4335028;33;20564;-69
2021/05/26 06:25:49;;;;;;;3.62;1.77;;;20.50;66.20;;;;;;4327624;32;20187;-68
2021/05/26 06:28:15;;;;;;;3.00;1.80;;;21.10;66.50;;;;;;4337545;32;20480;-68
2021/05/26 06:30:41;;;;;;;2.25;1.75;;;21.20;58.50;;;;;;4337273;32;20081;-70
2021/05/26 06:33:07;;;;;;;1.75;1.62;;;20.70;55.30;;;;;;4349614;32;20087;-70
2021/05/26 06:35:34;;;;;;;3.75;1.95;;;20.50;59.30;;;;;;4349325;32;20508;-70
2021/05/26 06:38:00;;;;;;;8.85;2.25;;;20.40;58.30;;;;;;4337610;32;20163;-70
2021/05/26 06:40:26;;;;;;;1.35;1.25;;;20.90;56.10;;;;;;4337548;32;20078;-70
2021/05/26 06:42:52;;;;;;;3.42;1.75;;;20.60;57.80;;;;;;4325469;32;20154;-70
2021/05/26 06:45:18;;;;;;;3.80;1.90;;;20.80;57.90;;;;;;4336817;32;20457;-68
2021/05/26 06:47:44;;;;;;;3.67;1.80;;;20.90;56.80;;;;;;4337898;32;20093;-69
2021/05/26 06:50:12;;;;;;;1.25;0.90;;;20.70;48.00;;;;;;4325703;32;20066;-69
2021/05/26 06:52:38;;;;;;;4.57;1.40;;;20.70;46.00;;;;;;4349685;32;20082;-69
2021/05/26 06:55:05;;;;;;;4.45;1.70;;;20.60;48.90;;;;;;4337226;32;20069;-69
2021/05/26 06:57:31;;;;;;;3.33;1.90;;;20.30;51.20;;;;;;4338924;32;20509;-70
2021/05/26 06:59:57;;;;;;;2.08;1.87;;;20.60;54.20;;;;;;4339522;32;20082;-71
2021/05/26 07:02:23;;;;;;;2.92;2.10;;;20.70;55.20;;;;;;4337067;32;20163;-71
2021/05/26 07:04:52;;;;;;;3.30;1.80;;;20.20;58.60;;;;;;4349226;32;20078;-70
2021/05/26 07:07:19;;;;;;;2.72;1.80;;;20.40;55.50;;;;;;4349619;32;20059;-71
2021/05/26 07:09:45;;;;;;;3.55;1.90;;;20.40;57.00;;;;;;4337000;32;20089;-69
2021/05/26 07:12:11;;;;;;;3.60;1.90;;;20.40;54.10;;;;;;4361736;32;20086;-69
2021/05/26 07:14:39;;;;;;;4.45;1.73;;;20.20;57.10;;;;;;4342524;33;20070;-69
2021/05/26 07:17:05;;;;;;;3.28;1.95;;;20.30;57.30;;;;;;4334609;33;20458;-69
2021/05/26 07:19:31;;;;;;;3.87;1.60;;;20.50;55.50;;;;;;4335245;33;20482;-69
2021/05/26 07:21:57;;;;;;;2.55;1.95;;;20.80;53.00;;;;;;4334556;33;20066;-69
2021/05/26 07:24:23;;;;;;;6.15;1.90;;;20.70;55.40;;;;;;4321653;33;20228;-69
2021/05/26 07:26:50;;;;;;;4.35;1.87;;;20.60;54.60;;;;;;4345406;32;20114;-69
2021/05/26 07:29:16;;;;;;;2.50;1.83;;;21.10;48.30;;;;;;4348886;32;20071;-69
2021/05/26 07:31:42;;;;;;;5.20;2.00;;;20.90;55.10;;;;;;4324500;32;20505;-71
2021/05/26 07:34:08;;;;;;;3.58;1.83;;;20.90;54.90;;;;;;4349072;32;20081;-71
2021/05/26 07:36:35;;;;;;;2.05;1.70;;;21.10;52.70;;;;;;4344436;32;20173;-70
2021/05/26 07:39:01;;;;;;;7.75;1.98;;;20.60;54.80;;;;;;4363928;32;20063;-70
2021/05/26 07:41:27;;;;;;;3.37;1.75;;;21.50;52.40;;;;;;4339277;32;20070;-70
2021/05/26 07:43:53;;;;;;;2.78;1.60;;;21.00;48.80;;;;;;4326790;32;20127;-70
2021/05/26 07:46:20;;;;;;;2.28;2.05;;;21.00;49.90;;;;;;4364154;32;20070;-70
2021/05/26 07:48:48;;;;;;;5.00;2.00;;;21.10;50.00;;;;;;4339244;32;20078;-71
2021/05/26 07:51:16;;;;;;;3.60;1.80;;;21.30;48.50;;;;;;4351494;32;20448;-69
2021/05/26 07:53:43;;;;;;;1.87;1.58;;;21.30;50.00;;;;;;4351538;32;20070;-70
2021/05/26 07:56:09;;;;;;;2.45;1.40;;;21.50;48.70;;;;;;4338630;32;20097;-69
2021/05/26 07:58:35;;;;;;;3.53;1.80;;;21.00;51.00;;;;;;4323017;32;20102;-71
2021/05/26 08:01:01;;;;;;;2.28;1.65;;;21.00;50.80;;;;;;4345535;32;20127;-63
2021/05/26 08:03:28;;;;;;;1.83;1.67;;;20.80;48.40;;;;;;4341067;32;20085;-65
2021/05/26 08:05:55;;;;;;;2.42;1.90;;;21.50;47.60;;;;;;4323973;32;20094;-65
2021/05/26 08:08:21;;;;;;;2.50;1.77;;;21.20;45.30;;;;;;4335776;32;20517;-62
2021/05/26 08:10:48;;;;;;;4.32;2.00;;;21.30;45.30;;;;;;4347988;32;20070;-63
2021/05/26 08:13:14;;;;;;;3.62;1.95;;;21.30;46.30;;;;;;4336123;32;20081;-64
2021/05/26 08:15:41;;;;;;;2.03;1.80;;;21.20;45.30;;;;;;4360775;32;20062;-63
2021/05/26 08:18:07;;;;;;;1.85;1.58;;;21.20;45.70;;;;;;4335548;32;20159;-62
2021/05/26 08:20:33;;;;;;;2.08;1.70;;;22.00;45.00;;;;;;4346044;32;20498;-65
2021/05/26 08:22:59;;;;;;;2.35;1.90;;;21.60;44.90;;;;;;4349877;32;20088;-72
2021/05/26 08:25:25;;;;;;;2.12;1.55;;;21.50;44.30;;;;;;4342039;32;20130;-68
2021/05/26 08:27:52;;;;;;;1.98;1.77;;;21.40;43.00;;;;;;4324333;32;20063;-71
2021/05/26 08:30:18;;;;;;;2.85;1.90;;;21.40;42.60;;;;;;4329668;33;20063;-65
2021/05/26 08:32:45;;;;;;;2.47;1.45;;;21.30;42.90;;;;;;4329693;32;20496;-65
2021/05/26 08:35:11;;;;;;;1.98;1.70;;;21.70;41.60;;;;;;4335863;33;20082;-69
2021/05/26 08:37:37;;;;;;;2.45;1.87;;;22.00;40.20;;;;;;4334260;32;20077;-67
2021/05/26 08:40:05;;;;;;;2.33;1.80;;;21.60;41.50;;;;;;4333074;32;20151;-68
2021/05/26 08:42:31;;;;;;;2.03;1.48;;;22.00;40.90;;;;;;4347140;32;20080;-66
2021/05/26 08:47:18;;;;;;;3.00;1.65;;;21.50;40.20;;;;;;3852550;37;20070;-64
2021/05/26 08:49:47;;;;;;;3.85;1.70;;;21.90;38.60;;;;;;4404393;32;20072;-65
2021/05/26 08:52:17;;;;;;;2.25;1.80;;;21.70;39.40;;;;;;4401581;32;20087;-67
2021/05/26 08:54:47;;;;;;;2.97;1.80;;;21.90;38.60;;;;;;4386132;32;20085;-73
2021/05/26 08:57:14;;;;;;;5.40;2.00;;;22.30;38.30;;;;;;4386947;32;20117;-70
2021/05/26 08:59:40;;;;;;;5.65;1.98;;;22.20;37.20;;;;;;4375970;32;20085;-66
2021/05/26 09:02:13;;;;;;;3.25;1.80;;;21.40;36.20;;;;;;4394398;32;20071;-64
2021/05/26 09:04:40;;;;;;;4.55;2.22;;;21.90;35.70;;;;;;4410947;32;20118;-71
2021/05/26 09:07:15;;;;;;;3.97;1.65;;;22.30;36.60;;;;;;4389909;32;20198;-65
2021/05/26 09:09:58;;;;;;;2.78;1.70;;;22.20;36.20;;;;;;4386071;32;20101;-66
2021/05/26 09:12:38;;;;;;;2.15;1.60;;;21.60;37.00;;;;;;4388001;32;20085;-68
2021/05/26 09:15:15;;;;;;;2.00;1.80;;;21.80;38.10;;;;;;4389690;32;20508;-70
2021/05/26 09:17:45;;;;;;;2.60;1.75;;;22.10;37.20;;;;;;4392812;32;20115;-65
2021/05/26 09:20:28;;;;;;;3.85;1.77;;;21.90;36.70;;;;;;4395951;32;20150;-62
2021/05/26 09:23:00;;;;;;;1.75;1.40;;;22.00;37.90;;;;;;4392290;32;20091;-75
2021/05/26 09:25:28;;;;;;;4.57;1.73;;;21.70;36.20;;;;;;4381280;32;20547;-70
2021/05/26 09:28:14;;;;;;;6.50;1.60;;;21.80;35.50;;;;;;4374657;32;20076;-64
2021/05/26 09:30:41;;;;;;;4.83;1.90;;;22.10;34.60;;;;;;4410820;32;20084;-63
2021/05/26 09:33:32;;;;;;;2.60;1.80;;;21.80;35.10;;;;;;4382398;32;20168;-64
2021/05/26 09:36:21;;;;;;;2.85;1.75;;;21.80;36.00;;;;;;4391946;32;20085;-67
2021/05/26 09:39:08;;;;;;;1.55;1.45;;;22.20;35.50;;;;;;4394187;32;20074;-67
2021/05/26 09:41:36;;;;;;;2.10;1.58;;;21.80;35.70;;;;;;4364254;32;20074;-70
2021/05/26 09:44:10;;;;;;;6.82;1.98;;;22.10;36.60;;;;;;4361650;32;20078;-69
2021/05/26 09:46:39;;;;;;;1.90;1.70;;;22.30;35.40;;;;;;4359469;32;20192;-66
2021/05/26 09:49:13;;;;;;;3.33;1.70;;;22.30;35.00;;;;;;4361694;32;20078;-68
2021/05/26 09:51:55;;;;;;;2.33;1.75;;;22.50;36.70;;;;;;4374036;32;20107;-68
2021/05/26 09:54:26;;;;;;;2.45;1.70;;;22.80;34.60;;;;;;4372223;32;20174;-74
2021/05/26 09:57:13;;;;;;;3.83;1.75;;;22.30;36.20;;;;;;4369331;32;20186;-69
2021/05/26 09:59:41;;;;;;;3.83;1.83;;;22.30;33.90;;;;;;4378649;32;20098;-71
2021/05/26 10:02:08;;;;;;;2.80;1.52;;;22.30;35.20;;;;;;4366600;32;20071;-64
2021/05/26 10:04:34;;;;;;;2.65;1.70;;;22.50;35.10;;;;;;4367912;32;20137;-64
2021/05/26 10:07:04;;;;;;;4.35;1.55;;;22.50;35.50;;;;;;4356308;32;20112;-64
2021/05/26 10:09:33;;;;;;;4.47;1.52;;;22.70;35.60;;;;;;4370057;32;20088;-64
2021/05/26 10:11:59;;;;;;;2.30;1.73;;;22.40;33.90;;;;;;4354951;32;20206;-63
2021/05/26 10:14:25;;;;;;;2.08;1.85;;;22.20;34.70;;;;;;4362725;32;20166;-64
2021/05/26 10:16:54;;;;;;;2.60;1.75;;;22.20;34.30;;;;;;4356545;32;20073;-64
2021/05/26 10:19:20;;;;;;;3.47;1.90;;;22.60;34.50;;;;;;4354623;32;20076;-62
2021/05/26 10:21:50;;;;;;;3.67;1.87;;;22.70;33.70;;;;;;4375411;32;20449;-63
2021/05/26 10:24:21;;;;;;;2.92;2.00;;;22.70;33.80;;;;;;4354820;32;20066;-63
2021/05/26 10:26:47;;;;;;;5.12;1.98;;;23.10;33.90;;;;;;4372785;32;20070;-63
2021/05/26 10:29:35;;;;;;;4.05;1.83;;;22.40;32.40;;;;;;4379211;32;20070;-64
2021/05/26 10:32:05;;;;;;;3.65;1.50;;;22.80;33.30;;;;;;4377961;32;20082;-62
2021/05/26 10:34:49;;;;;;;1.70;1.60;;;23.20;33.00;;;;;;4374243;32;20106;-62
2021/05/26 10:37:35;;;;;;;3.85;1.80;;;22.90;34.00;;;;;;4374032;32;20473;-61
2021/05/26 10:40:36;;;;;;;1.80;1.65;;;22.60;32.10;;;;;;4363039;32;20105;-60
2021/05/26 10:43:22;;;;;;;2.25;1.70;;;23.10;31.80;;;;;;4373004;32;20078;-62
2021/05/26 10:45:50;;;;;;;6.37;1.87;;;23.20;32.20;;;;;;4380205;32;20098;-63
2021/05/26 10:48:38;;;;;;;3.60;1.50;;;23.20;32.10;;;;;;4362266;32;20104;-60
2021/05/26 10:51:04;;;;;;;2.17;1.60;;;23.00;31.30;;;;;;4381510;32;20073;-59
2021/05/26 10:53:43;;;;;;;1.90;1.60;;;22.80;32.60;;;;;;4384617;32;20117;-59
2021/05/26 10:56:48;;;;;;;2.25;1.67;;;23.10;32.10;;;;;;4379441;32;20089;-61
2021/05/26 10:59:15;;;;;;;3.85;1.48;;;23.00;33.00;;;;;;4350145;32;20172;-63
2021/05/26 11:02:02;;;;;;;4.93;1.60;;;23.20;32.20;;;;;;4314204;32;20473;-61
2021/05/26 11:04:32;;;;;;;2.10;1.80;;;23.20;31.50;;;;;;4369321;32;20120;-63
2021/05/26 11:07:29;;;;;;;1.80;1.52;;;22.90;31.90;;;;;;4365386;32;20520;-61
2021/05/26 11:10:06;;;;;;;2.85;1.58;;;23.00;31.90;;;;;;4353886;32;20135;-62
2021/05/26 11:12:55;;;;;;;4.20;1.70;;;23.00;31.90;;;;;;4369243;32;20072;-61
2021/05/26 11:15:48;;;;;;;4.03;2.10;;;24.10;31.50;;;;;;4378355;32;20194;-60
2021/05/26 11:20:53;;;;;;;3.58;1.52;;;23.50;31.60;;;;;;4367281;32;20222;-61
2021/05/26 11:23:20;;;;;;;2.87;1.90;;;23.30;32.30;;;;;;4366509;32;20568;-62
2021/05/26 11:25:53;;;;;;;4.05;1.60;;;23.60;32.20;;;;;;4355361;32;20499;-61
2021/05/26 11:28:30;;;;;;;3.85;1.95;;;23.10;32.80;;;;;;4369545;32;20093;-62
2021/05/26 11:31:09;;;;;;;6.62;1.65;;;23.00;32.20;;;;;;4380753;32;20070;-62
2021/05/26 11:33:39;;;;;;;6.07;1.95;;;23.80;31.30;;;;;;4381997;32;20077;-62
2021/05/26 11:36:07;;;;;;;1.92;1.50;;;23.00;31.50;;;;;;4360783;32;20500;-63
2021/05/26 11:38:34;;;;;;;2.47;1.35;;;23.60;31.10;;;;;;4358264;32;20072;-63
2021/05/26 11:41:02;;;;;;;2.87;1.27;;;22.80;32.10;;;;;;4370030;32;20176;-63
2021/05/26 11:43:32;;;;;;;1.40;1.25;;;22.90;32.20;;;;;;4359578;32;20090;-64
2021/05/26 11:46:07;;;;;;;3.47;1.65;;;23.30;31.90;;;;;;4347234;32;20441;-60
2021/05/26 11:48:33;;;;;;;3.55;1.60;;;23.10;31.90;;;;;;4364301;32;20066;-61
2021/05/26 11:51:00;;;;;;;2.45;1.62;;;23.40;31.90;;;;;;4362110;32;20634;-64
2021/05/26 11:53:27;;;;;;;3.90;1.55;;;23.10;32.60;;;;;;4347228;32;20147;-61
2021/05/26 11:55:59;;;;;;;2.00;1.73;;;22.80;33.20;;;;;;4355008;32;20548;-60
2021/05/26 11:58:35;;;;;;;2.70;1.70;;;22.50;35.00;;;;;;4386394;32;20117;-59
2021/05/26 12:01:12;;;;;;;3.15;1.62;;;22.60;34.40;;;;;;4365799;32;20497;-61
2021/05/26 12:03:38;;;;;;;4.32;1.50;;;22.60;34.90;;;;;;4363460;32;20066;-68
2021/05/26 12:06:05;;;;;;;2.78;1.65;;;22.70;34.70;;;;;;4389760;32;20064;-63
2021/05/26 12:08:35;;;;;;;3.17;1.80;;;22.90;34.20;;;;;;4370208;32;20143;-65
2021/05/26 12:11:10;;;;;;;4.53;1.90;;;23.00;33.50;;;;;;4341664;32;20070;-63
2021/05/26 12:13:42;;;;;;;2.05;1.85;;;23.20;33.30;;;;;;4358772;32;20177;-64
2021/05/26 12:16:13;;;;;;;3.33;1.80;;;23.00;33.10;;;;;;4369359;32;20117;-62
2021/05/26 12:18:54;;;;;;;2.78;1.75;;;22.90;32.90;;;;;;4349276;32;20082;-62
2021/05/26 12:21:26;;;;;;;3.60;1.73;;;22.90;33.30;;;;;;4376401;32;20167;-62
2021/05/26 12:24:02;;;;;;;4.72;1.92;;;23.10;33.70;;;;;;4355516;32;20106;-63
2021/05/26 12:26:36;;;;;;;6.15;2.05;;;23.10;34.10;;;;;;4358470;32;21770;-62
2021/05/26 12:29:09;;;;;;;3.08;1.95;;;23.30;33.30;;;;;;4365775;32;20202;-62
2021/05/26 12:31:36;;;;;;;3.95;1.98;;;23.10;33.90;;;;;;4360177;32;20152;-62
2021/05/26 12:34:02;;;;;;;3.95;1.65;;;23.40;33.60;;;;;;4358480;32;20097;-63
2021/05/26 12:36:30;;;;;;;4.40;2.00;;;22.50;34.40;;;;;;4357128;32;20056;-63
2021/05/26 12:38:59;;;;;;;3.70;1.65;;;23.00;34.60;;;;;;4357376;32;20060;-63
2021/05/26 12:41:33;;;;;;;2.37;1.83;;;22.60;34.00;;;;;;4367930;32;20081;-63
2021/05/26 12:44:09;;;;;;;5.90;2.50;;;22.70;33.40;;;;;;4355862;32;20106;-64
2021/05/26 12:46:52;;;;;;;2.92;1.70;;;22.90;34.20;;;;;;4376510;32;20101;-62
2021/05/26 12:49:28;;;;;;;2.00;1.65;;;22.50;34.60;;;;;;4369904;32;20121;-62
2021/05/26 12:52:03;;;;;;;3.97;2.00;;;22.30;35.00;;;;;;4381184;32;20109;-65
2021/05/26 12:54:47;;;;;;;5.10;2.00;;;22.20;35.00;;;;;;4376725;32;20106;-63
2021/05/26 12:57:14;;;;;;;6.03;2.15;;;22.30;34.20;;;;;;4374143;32;20077;-68
2021/05/26 12:59:43;;;;;;;3.55;1.70;;;22.60;33.10;;;;;;4358342;32;20559;-67
2021/05/26 13:02:13;;;;;;;1.85;1.30;;;22.90;31.60;;;;;;4371679;32;20124;-64
2021/05/26 13:04:47;;;;;;;2.87;1.75;;;22.70;30.60;;;;;;4383167;32;20090;-65
2021/05/26 13:07:44;;;;;;;3.95;1.80;;;22.50;31.10;;;;;;4375889;32;20074;-66